Time;durP1;ratioP1;P1;durP2;ratioP2;P2;SDS_P1;SDS_P2;PMS_P1;PMS_P2;Temp;Humidity;BMP_temperature;BMP_pressure;BME280_temperature;BME280_humidity;BME280_pressure;Samples;Min_cycle;Max_cycle;Signal;HPM_P1;HPM_P2
2022/02/16 00:02:14;;;;;;;2.20;0.90;;;7.80;99.90;;;;;;5075202;28;20183;-85
2022/02/16 00:04:40;;;;;;;2.60;0.80;;;7.80;99.90;;;;;;5075222;28;20543;-83
2022/02/16 00:07:06;;;;;;;2.00;0.90;;;7.80;99.90;;;;;;5075092;28;20175;-82
2022/02/16 00:09:32;;;;;;;2.60;1.00;;;7.80;99.90;;;;;;5075376;28;20524;-83
2022/02/16 00:12:00;;;;;;;2.23;0.80;;;7.90;99.90;;;;;;5075460;28;20413;-82
2022/02/16 00:14:26;;;;;;;2.20;0.90;;;7.80;99.90;;;;;;5074963;28;20431;-85
2022/02/16 00:16:52;;;;;;;3.10;1.03;;;7.90;99.90;;;;;;5074453;28;20456;-84
2022/02/16 00:19:18;;;;;;;2.00;0.70;;;7.80;99.90;;;;;;5074814;28;20417;-81
2022/02/16 00:21:44;;;;;;;2.03;0.83;;;7.90;99.90;;;;;;5075564;28;20262;-83
2022/02/16 00:24:09;;;;;;;2.10;0.80;;;7.90;99.90;;;;;;5075471;28;20232;-83
2022/02/16 00:26:35;;;;;;;2.10;0.90;;;7.90;99.90;;;;;;5074957;28;20241;-84
2022/02/16 00:29:00;;;;;;;2.07;0.80;;;7.90;99.90;;;;;;5075794;28;20186;-83
2022/02/16 00:31:26;;;;;;;2.00;0.80;;;7.90;99.90;;;;;;5075049;28;20268;-82
2022/02/16 00:33:52;;;;;;;2.57;0.90;;;7.90;99.90;;;;;;5076275;28;20183;-82
2022/02/16 00:36:18;;;;;;;2.10;0.77;;;7.90;99.90;;;;;;5076428;28;20232;-85
2022/02/16 00:38:44;;;;;;;2.07;0.80;;;7.90;99.90;;;;;;5074543;28;20504;-85
2022/02/16 00:41:09;;;;;;;2.00;0.73;;;7.90;99.90;;;;;;5075886;28;20900;-83
2022/02/16 00:43:35;;;;;;;2.23;0.83;;;7.90;99.90;;;;;;5075288;28;20202;-82
2022/02/16 00:46:00;;;;;;;2.40;0.97;;;7.90;99.90;;;;;;5074469;28;20195;-82
2022/02/16 00:48:26;;;;;;;2.10;0.90;;;7.90;99.90;;;;;;5074415;28;20522;-84
2022/02/16 00:50:51;;;;;;;2.60;0.90;;;7.90;99.90;;;;;;5073971;28;20183;-84
2022/02/16 00:53:17;;;;;;;2.00;0.70;;;7.90;99.90;;;;;;5074237;28;20175;-83
2022/02/16 00:55:42;;;;;;;2.07;0.83;;;7.90;99.90;;;;;;5073754;28;20618;-83
2022/02/16 00:58:08;;;;;;;2.30;1.00;;;7.90;99.90;;;;;;5073249;28;20234;-83
2022/02/16 01:00:34;;;;;;;2.10;0.80;;;7.90;99.90;;;;;;5073553;28;20171;-85
2022/02/16 01:03:00;;;;;;;2.10;0.90;;;8.00;99.90;;;;;;5075135;28;20286;-84
2022/02/16 01:05:26;;;;;;;2.30;1.20;;;8.00;99.90;;;;;;5073921;28;20480;-82
2022/02/16 01:07:52;;;;;;;2.10;0.90;;;8.00;99.90;;;;;;5071883;28;20508;-82
2022/02/16 01:10:18;;;;;;;2.97;0.80;;;8.00;99.90;;;;;;5072141;28;20440;-83
2022/02/16 01:12:44;;;;;;;2.23;0.90;;;8.00;99.90;;;;;;5071781;28;20550;-82
2022/02/16 01:15:10;;;;;;;2.53;1.10;;;8.00;99.90;;;;;;5072051;28;20483;-82
2022/02/16 01:17:36;;;;;;;2.17;0.90;;;8.00;99.90;;;;;;5071235;28;20248;-84
2022/02/16 01:20:02;;;;;;;2.20;0.83;;;8.00;99.90;;;;;;5072553;28;20466;-82
2022/02/16 01:22:27;;;;;;;2.70;1.00;;;8.10;99.90;;;;;;5072052;28;20270;-82
2022/02/16 01:24:53;;;;;;;2.40;0.90;;;8.10;99.90;;;;;;5071638;28;20476;-82
2022/02/16 01:27:19;;;;;;;2.10;0.90;;;8.10;99.90;;;;;;5071503;28;20183;-82
2022/02/16 01:29:45;;;;;;;2.13;0.80;;;8.10;99.90;;;;;;5071304;28;20584;-82
2022/02/16 01:32:10;;;;;;;2.60;0.90;;;8.10;99.90;;;;;;5071218;28;20917;-82
2022/02/16 01:34:36;;;;;;;2.20;0.80;;;8.10;99.90;;;;;;5072596;28;20290;-82
2022/02/16 01:37:02;;;;;;;2.00;0.80;;;8.10;99.90;;;;;;5072083;28;20269;-82
2022/02/16 01:39:27;;;;;;;2.00;0.80;;;8.10;99.90;;;;;;5072515;28;20171;-82
2022/02/16 01:41:55;;;;;;;2.10;0.90;;;8.10;99.90;;;;;;5071155;28;20171;-82
2022/02/16 01:44:22;;;;;;;2.40;1.33;;;8.20;99.90;;;;;;5072382;28;20591;-82
2022/02/16 01:47:08;;;;;;;2.10;0.80;;;8.20;99.90;;;;;;5072165;28;20889;-82
2022/02/16 01:49:35;;;;;;;2.10;0.80;;;8.20;99.90;;;;;;5072106;28;20421;-82
2022/02/16 01:52:01;;;;;;;2.10;0.80;;;8.20;99.90;;;;;;5071032;28;20425;-82
2022/02/16 01:54:27;;;;;;;2.00;0.70;;;8.20;99.90;;;;;;5072282;28;20794;-82
2022/02/16 01:56:53;;;;;;;2.30;0.93;;;8.20;99.90;;;;;;5070496;28;20457;-82
2022/02/16 01:59:20;;;;;;;2.10;0.87;;;8.20;99.90;;;;;;5072073;28;20211;-82
2022/02/16 02:01:46;;;;;;;2.10;0.70;;;8.30;99.90;;;;;;5074801;28;20425;-82
2022/02/16 02:04:14;;;;;;;2.40;1.00;;;8.30;99.90;;;;;;5074824;28;20515;-82
2022/02/16 02:06:40;;;;;;;2.80;0.80;;;8.30;99.90;;;;;;5074532;28;20503;-82
2022/02/16 02:09:05;;;;;;;2.10;0.70;;;8.30;99.90;;;;;;5075172;28;20456;-83
2022/02/16 02:11:31;;;;;;;2.17;0.90;;;8.30;99.90;;;;;;5074746;28;20183;-83
2022/02/16 02:14:03;;;;;;;3.10;0.80;;;8.30;99.90;;;;;;5074620;28;20187;-82
2022/02/16 02:16:29;;;;;;;2.00;0.73;;;8.30;99.90;;;;;;5073822;28;20704;-82
2022/02/16 02:18:55;;;;;;;2.20;0.90;;;8.30;99.90;;;;;;5074496;28;20409;-83
2022/02/16 02:21:22;;;;;;;2.57;0.80;;;8.40;99.90;;;;;;5074544;28;20471;-83
2022/02/16 02:23:48;;;;;;;2.00;0.80;;;8.30;99.90;;;;;;5075670;28;20476;-83
2022/02/16 02:26:14;;;;;;;2.10;0.80;;;8.40;99.90;;;;;;5075324;28;20448;-83
2022/02/16 02:28:40;;;;;;;2.00;0.70;;;8.40;99.90;;;;;;5074020;28;20421;-82
2022/02/16 02:31:06;;;;;;;2.57;0.80;;;8.30;99.90;;;;;;5075651;28;20420;-83
2022/02/16 02:33:32;;;;;;;2.10;0.80;;;8.30;99.90;;;;;;5074381;28;20421;-82
2022/02/16 02:35:57;;;;;;;2.20;0.90;;;8.30;99.90;;;;;;5073784;28;20889;-83
2022/02/16 02:38:23;;;;;;;2.10;0.80;;;8.30;99.90;;;;;;5075384;28;20262;-82
2022/02/16 02:40:57;;;;;;;1.90;0.70;;;8.40;99.90;;;;;;5074106;28;20270;-82
2022/02/16 02:43:25;;;;;;;2.20;0.80;;;8.40;99.90;;;;;;5075473;28;20173;-83
2022/02/16 02:45:52;;;;;;;2.40;0.83;;;8.30;99.90;;;;;;5073630;28;20496;-82
2022/02/16 02:48:25;;;;;;;2.30;0.80;;;8.40;99.90;;;;;;5074868;28;20437;-83
2022/02/16 02:50:54;;;;;;;2.10;0.80;;;8.40;99.90;;;;;;5075007;28;20497;-83
2022/02/16 02:53:20;;;;;;;2.30;0.80;;;8.40;99.90;;;;;;5075113;28;20444;-82
2022/02/16 02:55:47;;;;;;;3.07;0.90;;;8.40;99.90;;;;;;5073559;28;20440;-82
2022/02/16 02:58:12;;;;;;;2.20;0.80;;;8.40;99.90;;;;;;5073191;28;20879;-82
2022/02/16 03:00:38;;;;;;;2.10;0.70;;;8.40;99.90;;;;;;5073840;28;20409;-82
2022/02/16 03:03:04;;;;;;;2.03;0.80;;;8.50;99.90;;;;;;5073623;28;20189;-82
2022/02/16 03:05:30;;;;;;;2.10;0.90;;;8.50;99.90;;;;;;5073582;28;20211;-82
2022/02/16 03:07:56;;;;;;;1.97;0.80;;;8.50;99.90;;;;;;5073260;28;20421;-82
2022/02/16 03:10:22;;;;;;;2.00;0.80;;;8.50;99.90;;;;;;5073284;28;20175;-82
2022/02/16 03:12:47;;;;;;;4.20;3.33;;;8.40;99.90;;;;;;5073122;28;20175;-82
2022/02/16 03:15:13;;;;;;;2.90;0.90;;;8.50;99.90;;;;;;5073197;28;20791;-82
2022/02/16 03:17:39;;;;;;;3.20;0.80;;;8.40;99.90;;;;;;5072824;28;20195;-82
2022/02/16 03:20:06;;;;;;;2.40;0.97;;;8.40;99.90;;;;;;5073339;28;20198;-82
2022/02/16 03:22:32;;;;;;;2.00;0.87;;;8.50;99.90;;;;;;5073144;28;20179;-82
2022/02/16 03:24:59;;;;;;;2.10;0.70;;;8.50;99.90;;;;;;5074713;28;20834;-82
2022/02/16 03:27:25;;;;;;;2.20;0.77;;;8.50;99.90;;;;;;5072528;28;20861;-82
2022/02/16 03:29:50;;;;;;;2.20;1.00;;;8.50;99.90;;;;;;5074225;28;20448;-82
2022/02/16 03:32:16;;;;;;;2.40;1.00;;;8.60;99.90;;;;;;5073056;28;20175;-83
2022/02/16 03:34:42;;;;;;;2.00;0.70;;;8.50;99.90;;;;;;5072775;28;20245;-82
2022/02/16 03:37:08;;;;;;;2.03;0.90;;;8.50;99.90;;;;;;5073555;28;20277;-82
2022/02/16 03:39:34;;;;;;;2.10;0.80;;;8.60;99.90;;;;;;5072635;28;20179;-82
2022/02/16 03:42:00;;;;;;;2.10;0.80;;;8.50;99.90;;;;;;5074048;28;20413;-83
2022/02/16 03:44:25;;;;;;;2.57;1.00;;;8.50;99.90;;;;;;5072350;28;20413;-82
2022/02/16 03:46:51;;;;;;;2.87;0.97;;;8.50;99.90;;;;;;5072189;28;20256;-82
2022/02/16 03:49:17;;;;;;;2.17;0.90;;;8.50;99.90;;;;;;5073732;28;20220;-82
2022/02/16 03:51:43;;;;;;;2.10;0.90;;;8.50;99.90;;;;;;5073844;28;21042;-81
2022/02/16 03:54:09;;;;;;;2.00;0.77;;;8.50;99.90;;;;;;5072407;28;20496;-82
2022/02/16 03:56:34;;;;;;;1.97;0.73;;;8.60;99.90;;;;;;5073131;28;20199;-82
2022/02/16 03:59:00;;;;;;;2.23;0.83;;;8.60;99.90;;;;;;5072459;28;20182;-82
2022/02/16 04:01:25;;;;;;;2.00;0.70;;;8.60;99.90;;;;;;5072264;28;20182;-82
2022/02/16 04:03:51;;;;;;;2.00;0.80;;;8.60;99.90;;;;;;5072202;28;20521;-82
2022/02/16 04:06:17;;;;;;;2.10;0.80;;;8.70;99.90;;;;;;5073307;28;20233;-82
2022/02/16 04:08:43;;;;;;;2.10;0.87;;;8.70;99.90;;;;;;5074415;28;20175;-82
2022/02/16 04:11:09;;;;;;;2.33;1.07;;;8.80;99.90;;;;;;5072701;28;20476;-82
2022/02/16 04:13:35;;;;;;;2.20;0.90;;;8.70;99.90;;;;;;5073862;28;20417;-82
2022/02/16 04:16:00;;;;;;;2.40;0.90;;;8.80;99.90;;;;;;5072009;28;20198;-82
2022/02/16 04:18:26;;;;;;;2.20;0.90;;;8.80;99.90;;;;;;5073278;28;20781;-82
2022/02/16 04:20:52;;;;;;;4.97;1.03;;;8.80;99.90;;;;;;5073633;28;20179;-82
2022/02/16 04:23:17;;;;;;;2.10;0.70;;;8.80;99.90;;;;;;5072372;28;20173;-82
2022/02/16 04:25:43;;;;;;;2.70;0.80;;;8.80;99.90;;;;;;5073058;28;20206;-83
2022/02/16 04:28:09;;;;;;;2.00;0.80;;;8.80;99.90;;;;;;5074904;28;20704;-84
2022/02/16 04:30:34;;;;;;;2.00;0.70;;;8.80;99.90;;;;;;5075079;28;20188;-83
2022/02/16 04:33:00;;;;;;;1.90;0.70;;;8.80;99.90;;;;;;5074980;28;20445;-84
2022/02/16 04:35:26;;;;;;;1.93;0.70;;;8.80;99.90;;;;;;5074547;28;20213;-84
2022/02/16 04:37:52;;;;;;;2.00;0.80;;;8.80;99.90;;;;;;5074768;28;20203;-84
2022/02/16 04:40:17;;;;;;;2.00;0.70;;;8.80;99.90;;;;;;5074859;28;20226;-83
2022/02/16 04:42:43;;;;;;;2.00;0.70;;;8.80;99.90;;;;;;5074543;28;20794;-84
2022/02/16 04:45:10;;;;;;;2.20;0.90;;;8.80;99.90;;;;;;5074198;28;20230;-83
2022/02/16 04:47:36;;;;;;;2.10;0.80;;;8.80;99.90;;;;;;5074134;28;20843;-83
2022/02/16 04:50:03;;;;;;;2.00;0.73;;;8.80;99.90;;;;;;5074436;28;20440;-83
2022/02/16 04:52:34;;;;;;;2.00;0.87;;;8.80;99.90;;;;;;5074284;28;20186;-83
2022/02/16 04:55:10;;;;;;;2.30;0.80;;;8.80;99.90;;;;;;5073892;28;20449;-82
2022/02/16 04:57:36;;;;;;;2.10;0.80;;;8.80;99.90;;;;;;5073579;28;20496;-82
2022/02/16 05:00:05;;;;;;;2.10;0.80;;;8.70;99.90;;;;;;5076135;28;20435;-82
2022/02/16 05:02:30;;;;;;;2.10;0.70;;;8.70;99.90;;;;;;5075874;28;20560;-83
2022/02/16 05:04:56;;;;;;;1.97;0.70;;;8.70;99.90;;;;;;5075346;28;20488;-84
2022/02/16 05:07:22;;;;;;;2.00;0.80;;;8.80;99.90;;;;;;5073887;28;20171;-84
2022/02/16 05:09:48;;;;;;;2.00;0.70;;;8.70;99.90;;;;;;5074530;28;20719;-83
2022/02/16 05:12:14;;;;;;;1.90;0.70;;;8.70;99.90;;;;;;5073848;28;20425;-84
2022/02/16 05:14:41;;;;;;;2.00;0.70;;;8.80;99.90;;;;;;5074293;28;20590;-83
2022/02/16 05:17:07;;;;;;;2.20;0.80;;;8.70;99.90;;;;;;5073598;28;20544;-84
2022/02/16 05:19:32;;;;;;;2.80;1.87;;;8.70;99.90;;;;;;5073331;28;20929;-83
2022/02/16 05:21:58;;;;;;;2.37;0.90;;;8.70;99.90;;;;;;5075447;28;20413;-84
2022/02/16 05:24:24;;;;;;;2.07;0.70;;;8.70;99.90;;;;;;5073248;28;20190;-83
2022/02/16 05:26:50;;;;;;;2.07;0.87;;;8.80;99.90;;;;;;5074436;28;20209;-83
2022/02/16 05:29:16;;;;;;;2.00;0.70;;;8.80;99.90;;;;;;5074668;28;20473;-83
2022/02/16 05:31:41;;;;;;;1.93;0.70;;;8.80;99.90;;;;;;5073075;28;20183;-83
2022/02/16 05:34:07;;;;;;;2.00;0.70;;;8.70;99.90;;;;;;5072819;28;20183;-83
2022/02/16 05:36:33;;;;;;;2.00;0.80;;;8.70;99.90;;;;;;5073920;28;20295;-83
2022/02/16 05:38:58;;;;;;;2.77;0.90;;;8.70;99.90;;;;;;5072870;28;20562;-83
2022/02/16 05:41:24;;;;;;;2.27;0.80;;;8.80;99.90;;;;;;5074384;28;20285;-83
2022/02/16 05:43:50;;;;;;;2.10;0.87;;;8.70;99.90;;;;;;5072364;28;20186;-82
2022/02/16 05:46:16;;;;;;;1.93;0.70;;;8.80;99.90;;;;;;5073965;28;20220;-83
2022/02/16 05:48:42;;;;;;;2.00;0.80;;;8.80;99.90;;;;;;5072738;28;20414;-82
2022/02/16 05:51:08;;;;;;;2.77;0.90;;;8.80;99.90;;;;;;5073006;28;20651;-83
2022/02/16 05:53:33;;;;;;;1.90;0.70;;;8.80;99.90;;;;;;5073854;28;20424;-82
2022/02/16 05:55:59;;;;;;;2.00;0.70;;;8.80;99.90;;;;;;5072328;28;20206;-82
2022/02/16 05:58:24;;;;;;;2.00;0.70;;;8.90;99.90;;;;;;5072086;28;20293;-83
2022/02/16 06:00:50;;;;;;;2.00;0.80;;;8.90;99.90;;;;;;5072592;28;20671;-83
2022/02/16 06:03:15;;;;;;;2.00;0.70;;;8.90;99.90;;;;;;5072102;28;20228;-83
2022/02/16 06:05:41;;;;;;;2.00;0.70;;;8.90;99.90;;;;;;5071920;28;20757;-83
2022/02/16 06:08:06;;;;;;;3.37;0.80;;;8.90;99.90;;;;;;5071669;28;20588;-83
2022/02/16 06:10:32;;;;;;;1.90;0.70;;;9.00;99.90;;;;;;5073659;28;20202;-83
2022/02/16 06:13:01;;;;;;;2.20;1.03;;;9.00;99.90;;;;;;5072277;28;20556;-83
2022/02/16 06:15:27;;;;;;;2.00;0.70;;;9.00;99.90;;;;;;5073644;28;20203;-83
2022/02/16 06:17:53;;;;;;;2.00;0.70;;;9.00;99.90;;;;;;5071598;28;20453;-82
2022/02/16 06:20:19;;;;;;;1.93;0.73;;;9.00;99.90;;;;;;5071999;28;20834;-82
2022/02/16 06:22:45;;;;;;;2.57;0.80;;;9.00;99.90;;;;;;5071739;28;20425;-83
2022/02/16 06:25:11;;;;;;;2.20;0.90;;;9.00;99.90;;;;;;5071889;28;20435;-82
2022/02/16 06:27:36;;;;;;;2.10;0.70;;;9.10;99.90;;;;;;5071421;28;20229;-82
2022/02/16 06:30:07;;;;;;;2.20;0.80;;;9.10;99.90;;;;;;5072851;28;20175;-82
2022/02/16 06:32:33;;;;;;;2.10;0.90;;;9.10;99.90;;;;;;5071644;28;20191;-83
2022/02/16 06:34:59;;;;;;;2.50;0.83;;;9.10;99.90;;;;;;5071444;28;20459;-83
2022/02/16 06:37:24;;;;;;;2.40;0.70;;;9.10;99.90;;;;;;5072371;28;20457;-82
2022/02/16 06:39:50;;;;;;;3.03;0.80;;;9.10;99.90;;;;;;5071433;28;20171;-82
2022/02/16 06:42:15;;;;;;;2.20;0.90;;;9.10;99.90;;;;;;5071100;28;20263;-83
2022/02/16 06:44:41;;;;;;;1.97;0.70;;;9.10;99.90;;;;;;5071230;28;20207;-84
2022/02/16 06:47:07;;;;;;;2.53;0.70;;;9.20;99.90;;;;;;5074319;28;20266;-82
2022/02/16 06:49:32;;;;;;;2.20;0.90;;;9.20;99.90;;;;;;5076172;28;20179;-82
2022/02/16 06:51:58;;;;;;;2.10;0.80;;;9.20;99.90;;;;;;5074657;28;20421;-83
2022/02/16 06:54:24;;;;;;;2.00;0.70;;;9.20;99.90;;;;;;5074237;28;20274;-82
2022/02/16 06:56:49;;;;;;;1.90;0.70;;;9.30;99.90;;;;;;5073962;28;20670;-82
2022/02/16 06:59:15;;;;;;;2.07;0.70;;;9.30;99.90;;;;;;5074369;28;20266;-82
2022/02/16 07:01:40;;;;;;;2.00;0.80;;;9.30;99.90;;;;;;5074499;28;20190;-82
2022/02/16 07:04:06;;;;;;;2.00;0.80;;;9.30;99.90;;;;;;5075810;28;20186;-82
2022/02/16 07:06:32;;;;;;;2.30;0.70;;;9.30;99.90;;;;;;5075186;28;20268;-82
2022/02/16 07:08:58;;;;;;;2.03;0.70;;;9.30;99.90;;;;;;5082653;28;20198;-81
2022/02/16 07:11:23;;;;;;;1.90;0.60;;;9.30;99.90;;;;;;5083498;28;20555;-81
2022/02/16 07:13:49;;;;;;;2.23;0.80;;;9.30;99.90;;;;;;5083086;28;20417;-81
2022/02/16 07:16:15;;;;;;;1.93;0.70;;;9.40;99.90;;;;;;5083467;28;20229;-82
2022/02/16 07:18:43;;;;;;;2.20;0.80;;;9.40;99.90;;;;;;5082411;28;20417;-81
2022/02/16 07:21:09;;;;;;;1.97;0.70;;;9.30;99.90;;;;;;5082525;28;20203;-82
2022/02/16 07:23:38;;;;;;;2.00;0.70;;;9.30;99.90;;;;;;5082278;28;20417;-81
2022/02/16 07:26:04;;;;;;;2.00;0.70;;;9.40;99.90;;;;;;5080214;28;20435;-81
2022/02/16 07:28:30;;;;;;;2.00;0.70;;;9.40;99.90;;;;;;5081879;28;20417;-81
2022/02/16 07:30:56;;;;;;;2.10;0.80;;;9.40;99.90;;;;;;5080573;28;20428;-82
2022/02/16 07:33:22;;;;;;;2.00;0.80;;;9.40;99.90;;;;;;5079642;28;20197;-83
2022/02/16 07:35:49;;;;;;;2.00;0.80;;;9.40;99.90;;;;;;5082483;28;20544;-81
2022/02/16 07:38:14;;;;;;;2.10;0.80;;;9.40;99.90;;;;;;5080135;28;20492;-82
2022/02/16 07:40:40;;;;;;;2.30;0.70;;;9.40;99.90;;;;;;5082097;28;20414;-82
2022/02/16 07:43:06;;;;;;;6.80;1.03;;;9.50;99.90;;;;;;5080568;28;20175;-82
2022/02/16 07:45:35;;;;;;;2.10;0.80;;;9.60;99.90;;;;;;5080570;28;20437;-82
2022/02/16 07:48:00;;;;;;;2.00;0.70;;;9.60;99.90;;;;;;5080904;28;20191;-82
2022/02/16 07:50:30;;;;;;;2.00;0.70;;;9.60;99.90;;;;;;5081118;28;20959;-82
2022/02/16 07:52:58;;;;;;;2.47;0.80;;;9.60;99.90;;;;;;5083589;28;20171;-82
2022/02/16 07:55:26;;;;;;;1.93;0.70;;;9.70;99.90;;;;;;5082506;28;20493;-81
2022/02/16 07:57:53;;;;;;;2.07;0.70;;;9.70;99.90;;;;;;5083042;28;20536;-82
2022/02/16 08:00:19;;;;;;;2.10;0.80;;;9.70;99.90;;;;;;5081392;28;20446;-82
2022/02/16 08:02:44;;;;;;;2.40;0.73;;;9.70;99.90;;;;;;5080505;28;20437;-82
2022/02/16 08:05:10;;;;;;;2.10;0.73;;;9.70;99.90;;;;;;5082045;28;20596;-82
2022/02/16 08:07:36;;;;;;;2.30;0.80;;;9.70;99.90;;;;;;5080753;28;20214;-82
2022/02/16 08:10:02;;;;;;;2.20;0.73;;;9.80;99.90;;;;;;5080631;28;20646;-82
2022/02/16 08:12:28;;;;;;;2.10;0.70;;;9.70;99.90;;;;;;5081507;28;20421;-82
2022/02/16 08:14:55;;;;;;;2.70;0.80;;;9.80;99.90;;;;;;5080918;28;20256;-82
2022/02/16 08:17:20;;;;;;;2.00;0.70;;;9.80;99.90;;;;;;5081192;28;20242;-81
2022/02/16 08:19:46;;;;;;;2.00;0.70;;;9.90;99.90;;;;;;5080467;28;20437;-82
2022/02/16 08:22:11;;;;;;;2.20;0.80;;;9.90;99.90;;;;;;5081298;28;20183;-82
2022/02/16 08:24:37;;;;;;;5.13;0.90;;;10.00;99.90;;;;;;5080804;28;20203;-82
2022/02/16 08:27:03;;;;;;;2.43;0.87;;;10.00;99.90;;;;;;5081886;28;20246;-82
2022/02/16 08:29:28;;;;;;;2.00;0.80;;;10.10;99.90;;;;;;5078186;28;20187;-83
2022/02/16 08:31:54;;;;;;;2.30;0.90;;;10.10;99.90;;;;;;5078803;28;20420;-83
2022/02/16 08:34:20;;;;;;;2.00;0.70;;;10.10;99.90;;;;;;5077574;28;20190;-83
2022/02/16 08:36:45;;;;;;;2.30;0.97;;;10.10;99.90;;;;;;5077309;28;20199;-83
2022/02/16 08:39:11;;;;;;;2.40;0.80;;;10.10;99.90;;;;;;5077357;28;20178;-82
2022/02/16 08:41:38;;;;;;;2.10;0.70;;;10.20;99.90;;;;;;5077451;28;20262;-83
2022/02/16 08:44:04;;;;;;;2.00;0.80;;;10.30;99.90;;;;;;5077368;28;20178;-82
2022/02/16 08:46:30;;;;;;;2.00;0.70;;;10.30;99.90;;;;;;5076854;28;20508;-82
2022/02/16 08:49:00;;;;;;;2.20;0.80;;;10.40;99.90;;;;;;5080965;28;20444;-82
2022/02/16 08:51:27;;;;;;;2.10;0.80;;;10.50;99.90;;;;;;5080195;28;20413;-83
2022/02/16 08:53:53;;;;;;;1.90;0.60;;;10.50;99.90;;;;;;5079659;28;20496;-82
2022/02/16 08:56:18;;;;;;;1.90;0.60;;;10.60;99.90;;;;;;5079879;28;20885;-82
2022/02/16 08:58:44;;;;;;;1.90;0.60;;;10.70;99.90;;;;;;5077925;28;20182;-82
2022/02/16 09:01:11;;;;;;;2.00;0.80;;;10.80;99.90;;;;;;5078446;28;20195;-83
2022/02/16 09:03:36;;;;;;;3.60;0.70;;;10.90;99.90;;;;;;5079760;28;20174;-82
2022/02/16 09:06:02;;;;;;;2.40;0.70;;;11.00;99.90;;;;;;5079973;28;20495;-82
2022/02/16 09:08:28;;;;;;;2.00;0.70;;;11.00;99.90;;;;;;5082562;28;20175;-83
2022/02/16 09:10:53;;;;;;;1.93;0.70;;;11.00;99.90;;;;;;5081372;28;20175;-82
2022/02/16 09:13:46;;;;;;;1.90;0.60;;;11.10;99.90;;;;;;5088371;28;20183;-81
2022/02/16 09:16:12;;;;;;;1.97;0.67;;;11.20;99.90;;;;;;5084414;28;20223;-82
2022/02/16 09:18:38;;;;;;;2.27;0.80;;;11.20;99.90;;;;;;5057231;28;20434;-82
2022/02/16 09:21:05;;;;;;;1.90;0.60;;;11.30;99.90;;;;;;5076389;28;20456;-82
2022/02/16 09:23:41;;;;;;;3.80;0.70;;;11.30;99.90;;;;;;5070884;28;20184;-82
2022/02/16 09:26:07;;;;;;;1.97;0.70;;;11.30;99.90;;;;;;5071456;28;20430;-84
2022/02/16 09:28:34;;;;;;;1.93;0.70;;;11.40;99.90;;;;;;5071482;28;20426;-83
2022/02/16 09:31:01;;;;;;;2.33;0.70;;;11.40;99.90;;;;;;5070643;28;20418;-82
2022/02/16 09:33:28;;;;;;;1.90;0.60;;;11.40;99.90;;;;;;5069301;28;20415;-82
2022/02/16 09:35:54;;;;;;;2.30;0.80;;;11.40;99.90;;;;;;5088068;28;20442;-83
2022/02/16 09:38:20;;;;;;;1.97;0.70;;;11.40;99.90;;;;;;5071722;28;20869;-84
2022/02/16 09:40:48;;;;;;;2.60;0.80;;;11.50;99.90;;;;;;5071970;28;20457;-81
2022/02/16 09:43:21;;;;;;;2.07;0.77;;;11.60;99.90;;;;;;5072101;28;20184;-83
2022/02/16 09:45:47;;;;;;;2.20;0.90;;;11.60;99.90;;;;;;5076599;28;20437;-82
2022/02/16 09:48:13;;;;;;;2.10;0.70;;;11.60;99.90;;;;;;5090768;28;20504;-82
2022/02/16 09:50:39;;;;;;;2.00;0.70;;;11.60;99.90;;;;;;5089493;28;20436;-84
2022/02/16 09:53:05;;;;;;;2.80;0.80;;;11.70;99.90;;;;;;5091057;28;20421;-82
2022/02/16 09:55:30;;;;;;;2.00;0.80;;;11.70;99.90;;;;;;5077094;28;20206;-81
2022/02/16 09:57:56;;;;;;;2.07;0.80;;;11.80;99.90;;;;;;5091141;28;20248;-82
2022/02/16 10:00:22;;;;;;;2.00;0.90;;;11.80;99.90;;;;;;5090929;28;20190;-81
2022/02/16 10:02:47;;;;;;;2.40;0.90;;;11.90;99.90;;;;;;5090411;28;20244;-81
2022/02/16 10:05:15;;;;;;;2.00;0.70;;;11.90;99.90;;;;;;5089112;28;20441;-82
2022/02/16 10:07:46;;;;;;;2.20;0.77;;;11.90;99.90;;;;;;5090742;28;20183;-81
2022/02/16 10:10:24;;;;;;;2.10;0.80;;;11.90;99.90;;;;;;5092548;28;20444;-83
2022/02/16 10:12:52;;;;;;;2.50;1.37;;;11.90;99.90;;;;;;5088912;28;20424;-82
2022/02/16 10:15:41;;;;;;;2.00;0.70;;;12.00;99.90;;;;;;5092510;28;20437;-83
2022/02/16 10:18:08;;;;;;;2.80;1.17;;;12.00;99.90;;;;;;5089489;28;20455;-82
2022/02/16 10:20:34;;;;;;;2.00;0.80;;;12.10;99.90;;;;;;5087102;28;20417;-82
2022/02/16 10:22:59;;;;;;;2.20;0.90;;;12.30;99.90;;;;;;5077755;28;20422;-82
2022/02/16 10:25:33;;;;;;;2.10;0.80;;;12.50;99.90;;;;;;5078427;28;20429;-81
2022/02/16 10:28:14;;;;;;;2.20;0.80;;;12.80;99.90;;;;;;5077118;28;20301;-82
2022/02/16 10:30:58;;;;;;;2.10;0.80;;;13.20;99.90;;;;;;5077277;28;20405;-81
2022/02/16 10:33:29;;;;;;;2.00;0.80;;;13.80;99.90;;;;;;5076960;28;20436;-82
2022/02/16 10:36:03;;;;;;;2.30;0.90;;;13.80;99.90;;;;;;5083133;28;20452;-83
2022/02/16 10:38:30;;;;;;;2.43;1.10;;;13.80;99.90;;;;;;5080055;28;20833;-85
2022/02/16 10:41:14;;;;;;;2.37;1.00;;;13.60;99.90;;;;;;5081420;28;20807;-85
2022/02/16 10:43:39;;;;;;;2.57;0.90;;;13.80;99.90;;;;;;5080235;28;20424;-85
2022/02/16 10:46:23;;;;;;;2.93;1.10;;;13.90;99.90;;;;;;5079474;28;20445;-87
2022/02/16 10:49:09;;;;;;;2.50;1.03;;;13.80;99.90;;;;;;5079481;28;20189;-86
2022/02/16 10:51:34;;;;;;;2.53;1.23;;;13.70;99.90;;;;;;5079246;28;20424;-85
2022/02/16 10:54:11;;;;;;;2.20;0.90;;;13.80;99.90;;;;;;5079026;28;20480;-85
2022/02/16 10:56:36;;;;;;;2.10;0.97;;;13.90;99.90;;;;;;5078679;28;20302;-85
2022/02/16 10:59:02;;;;;;;2.00;0.70;;;14.20;99.90;;;;;;5079112;28;20858;-85
2022/02/16 11:01:28;;;;;;;2.90;0.87;;;14.10;99.90;;;;;;5079672;28;20225;-83
2022/02/16 11:03:55;;;;;;;2.50;0.90;;;14.10;99.90;;;;;;5080105;28;20662;-83
2022/02/16 11:06:21;;;;;;;4.50;1.20;;;14.00;99.90;;;;;;5077864;28;20808;-84
2022/02/16 11:08:49;;;;;;;2.10;0.90;;;13.90;99.90;;;;;;5078917;28;20424;-84
2022/02/16 11:11:16;;;;;;;2.83;0.90;;;13.80;99.90;;;;;;5080106;28;20172;-86
2022/02/16 11:13:42;;;;;;;2.40;0.87;;;13.80;99.90;;;;;;5077645;28;20402;-86
2022/02/16 11:16:08;;;;;;;2.00;0.83;;;13.80;99.90;;;;;;5077544;28;20457;-86
2022/02/16 11:18:47;;;;;;;2.27;1.03;;;13.70;99.90;;;;;;5078425;28;20182;-84
2022/02/16 11:21:15;;;;;;;2.10;0.80;;;13.80;99.90;;;;;;5077993;28;20174;-84
2022/02/16 11:23:53;;;;;;;2.30;1.00;;;13.70;99.90;;;;;;5079096;28;20409;-86
2022/02/16 11:26:54;;;;;;;2.30;1.00;;;13.70;99.90;;;;;;5076731;28;20437;-85
2022/02/16 11:29:25;;;;;;;2.30;0.80;;;13.70;99.90;;;;;;4979720;28;20507;-83
2022/02/16 11:32:00;;;;;;;2.70;1.00;;;13.70;99.90;;;;;;5059836;28;20420;-84
2022/02/16 11:34:26;;;;;;;2.30;0.90;;;13.60;99.90;;;;;;5078553;28;20505;-85
2022/02/16 11:36:54;;;;;;;2.07;0.80;;;13.60;99.90;;;;;;5076104;28;20910;-85
2022/02/16 11:39:38;;;;;;;3.20;1.20;;;13.60;99.90;;;;;;5076525;28;20417;-86
2022/02/16 11:42:04;;;;;;;2.30;0.90;;;13.60;99.90;;;;;;5076957;28;20490;-85
2022/02/16 11:44:51;;;;;;;2.30;0.90;;;13.50;99.90;;;;;;5076782;28;20436;-85
2022/02/16 11:47:35;;;;;;;2.20;1.03;;;13.50;99.90;;;;;;5076198;28;20417;-84
2022/02/16 11:50:10;;;;;;;2.13;0.80;;;13.50;99.90;;;;;;5076034;28;20425;-85
2022/02/16 11:52:52;;;;;;;2.97;1.27;;;13.50;99.90;;;;;;5075997;28;20475;-85
2022/02/16 11:55:41;;;;;;;3.37;1.47;;;13.80;99.90;;;;;;5075401;28;20540;-85
2022/02/16 11:58:18;;;;;;;2.63;1.23;;;13.90;99.90;;;;;;5075258;28;20461;-85
2022/02/16 12:00:55;;;;;;;2.47;1.10;;;14.00;99.90;;;;;;5077111;28;20828;-84
2022/02/16 12:03:29;;;;;;;2.53;1.10;;;14.10;99.90;;;;;;5075693;28;20415;-85
2022/02/16 12:05:55;;;;;;;4.10;1.20;;;14.10;99.90;;;;;;5076287;28;20455;-85
2022/02/16 12:08:43;;;;;;;2.30;0.90;;;14.00;99.90;;;;;;5074656;28;20516;-86
2022/02/16 12:11:30;;;;;;;2.60;1.00;;;14.10;99.90;;;;;;5075138;28;20514;-84
2022/02/16 12:13:58;;;;;;;2.10;0.83;;;14.20;99.90;;;;;;5074511;28;20425;-84
2022/02/16 12:16:28;;;;;;;2.23;1.00;;;14.30;99.90;;;;;;5074385;28;20445;-84
2022/02/16 12:18:55;;;;;;;2.20;0.90;;;14.40;99.90;;;;;;5074369;28;20416;-84
2022/02/16 12:21:24;;;;;;;2.13;1.00;;;14.50;99.90;;;;;;5075795;28;20413;-85
2022/02/16 12:23:57;;;;;;;2.73;0.97;;;14.60;99.90;;;;;;5074438;28;20413;-85
2022/02/16 12:26:23;;;;;;;2.20;0.80;;;14.50;99.90;;;;;;5074154;28;20445;-84
2022/02/16 12:28:53;;;;;;;2.20;0.90;;;14.50;99.90;;;;;;5076203;28;20777;-85
2022/02/16 12:31:22;;;;;;;3.23;1.10;;;14.50;99.90;;;;;;5074230;28;20943;-86
2022/02/16 12:33:57;;;;;;;2.20;1.00;;;14.30;99.90;;;;;;5075648;28;20413;-85
2022/02/16 12:36:26;;;;;;;4.77;1.20;;;14.30;99.90;;;;;;5075811;28;20421;-86
2022/02/16 12:38:54;;;;;;;2.83;1.20;;;14.40;99.90;;;;;;5074429;28;20418;-84
2022/02/16 12:41:20;;;;;;;2.97;0.87;;;14.50;99.90;;;;;;5074219;28;20788;-84
2022/02/16 12:43:56;;;;;;;2.03;0.90;;;14.40;99.90;;;;;;5072247;28;20519;-84
2022/02/16 12:46:28;;;;;;;2.20;0.90;;;14.20;99.90;;;;;;5073096;28;20468;-83
2022/02/16 12:48:55;;;;;;;2.47;1.00;;;14.00;99.90;;;;;;5071497;28;20429;-83
2022/02/16 12:51:26;;;;;;;2.53;1.17;;;13.80;99.90;;;;;;5071394;28;20421;-84
2022/02/16 12:53:52;;;;;;;2.60;1.03;;;13.80;99.90;;;;;;5071252;28;20495;-84
2022/02/16 12:56:18;;;;;;;4.00;0.80;;;13.80;99.90;;;;;;5070946;28;20457;-83